Terminal Aerodrome Forecast
Issued by NWS Sioux Falls, SD

Home | Current Version | Previous Version | Text Only | Print | Product List | Glossary On
Versions: 1 2 3 4 5 6 7 8 9 10 11 12 13 14 15 16 17 18 19 20 21 22 23
000
FTUS43 KFSD 292244 AAC
TAFHON
TAF AMD
KHON 292244Z 2923/3018 35007KT P6SM VCTS SCT035CB OVC070
      TEMPO 2923/2924 VRB20G28KT 2SM TSRA BKN030CB
     FM300000 35006KT P6SM BKN250
     FM301000 34005KT 4SM BR SKC
     FM301200 34005KT 2SM BR SKC
     FM301300 35004KT 4SM BR SKC
     FM301400 VRB03KT P6SM SKC=

USA.gov is the U.S. government's official web portal to all federal, state and local government web resources and services.